Time;durP1;ratioP1;P1;durP2;ratioP2;P2;SDS_P1;SDS_P2;PMS_P1;PMS_P2;Temp;Humidity;BMP_temperature;BMP_pressure;BME280_temperature;BME280_humidity;BME280_pressure;Samples;Min_cycle;Max_cycle;Signal;HPM_P1;HPM_P2
2021/09/05 00:01:30;;;;;;;25.63;17.67;;;13.80;99.90;;;;;;4950145;28;20273;-80
2021/09/05 00:04:01;;;;;;;35.27;20.13;;;13.70;99.90;;;;;;4952135;28;20568;-80
2021/09/05 00:06:27;;;;;;;29.40;18.10;;;13.70;99.90;;;;;;4952387;28;20214;-80
2021/09/05 00:08:53;;;;;;;30.57;18.60;;;13.70;99.90;;;;;;4954057;28;21112;-80
2021/09/05 00:11:18;;;;;;;28.67;17.87;;;13.60;99.90;;;;;;4953782;28;20469;-80
2021/09/05 00:13:44;;;;;;;28.20;18.70;;;13.60;99.90;;;;;;4950935;28;20226;-80
2021/09/05 00:16:10;;;;;;;27.53;17.50;;;13.60;99.90;;;;;;4951975;28;20216;-80
2021/09/05 00:18:35;;;;;;;27.10;19.00;;;13.60;99.90;;;;;;4949708;28;20185;-79
2021/09/05 00:21:01;;;;;;;29.27;18.20;;;13.60;99.90;;;;;;4952339;28;20296;-79
2021/09/05 00:23:26;;;;;;;27.50;18.47;;;13.60;99.90;;;;;;4950873;28;20663;-80
2021/09/05 00:25:52;;;;;;;28.10;18.50;;;13.60;99.90;;;;;;4954036;28;20224;-79
2021/09/05 00:28:18;;;;;;;32.70;19.00;;;13.60;99.90;;;;;;4952981;28;20280;-80
2021/09/05 00:30:43;;;;;;;29.93;19.40;;;13.60;99.90;;;;;;4950650;28;20441;-79
2021/09/05 00:33:09;;;;;;;29.63;18.33;;;13.60;99.90;;;;;;4953719;28;20190;-80
2021/09/05 00:35:36;;;;;;;32.07;18.70;;;13.60;99.90;;;;;;4953381;28;20563;-80
2021/09/05 00:38:02;;;;;;;31.30;17.57;;;13.60;99.90;;;;;;4949832;28;20453;-79
2021/09/05 00:40:28;;;;;;;27.70;18.53;;;13.60;99.90;;;;;;4949953;28;20257;-79
2021/09/05 00:42:53;;;;;;;29.63;21.00;;;13.60;99.90;;;;;;4938485;28;20221;-80
2021/09/05 00:45:19;;;;;;;28.57;19.10;;;13.60;99.90;;;;;;4945656;28;20205;-80
2021/09/05 00:47:44;;;;;;;29.20;20.30;;;13.60;99.90;;;;;;4952312;28;20214;-80
2021/09/05 00:50:14;;;;;;;27.70;18.07;;;13.60;99.90;;;;;;4939443;28;20273;-80
2021/09/05 00:52:40;;;;;;;26.67;18.43;;;13.60;99.90;;;;;;4952055;28;20321;-80
2021/09/05 00:55:07;;;;;;;24.57;17.40;;;13.60;99.90;;;;;;4950829;28;20557;-80
2021/09/05 00:57:32;;;;;;;29.03;18.03;;;13.60;99.90;;;;;;4933417;28;20457;-80
2021/09/05 00:59:59;;;;;;;30.67;18.53;;;13.50;99.90;;;;;;4944606;28;20590;-80
2021/09/05 01:02:26;;;;;;;36.40;19.97;;;13.50;99.90;;;;;;4926222;28;20447;-80
2021/09/05 01:04:52;;;;;;;26.90;18.47;;;13.50;99.90;;;;;;4949252;28;20511;-79
2021/09/05 01:07:18;;;;;;;29.07;19.97;;;13.40;99.90;;;;;;4950295;28;20472;-80
2021/09/05 01:09:45;;;;;;;29.90;18.77;;;13.30;99.90;;;;;;4949055;28;20205;-80
2021/09/05 01:12:12;;;;;;;27.90;20.47;;;13.30;99.90;;;;;;4946726;28;20483;-80
2021/09/05 01:14:38;;;;;;;28.63;19.13;;;13.30;99.90;;;;;;4941461;28;21114;-79
2021/09/05 01:17:10;;;;;;;32.10;20.00;;;13.30;99.90;;;;;;4950573;28;20504;-80
2021/09/05 01:19:35;;;;;;;25.50;18.20;;;13.30;99.90;;;;;;4949664;28;20441;-80
2021/09/05 01:22:21;;;;;;;31.20;20.43;;;13.20;99.90;;;;;;4945622;28;20450;-79
2021/09/05 01:25:06;;;;;;;37.03;20.27;;;13.20;99.90;;;;;;4950755;28;20539;-80
2021/09/05 01:28:00;;;;;;;32.33;20.90;;;13.10;99.90;;;;;;4935577;28;20512;-80
2021/09/05 01:30:46;;;;;;;34.93;21.83;;;13.10;99.90;;;;;;4936996;28;20454;-80
2021/09/05 01:33:30;;;;;;;32.37;21.27;;;13.00;99.90;;;;;;4953681;28;20584;-79
2021/09/05 01:36:31;;;;;;;31.40;19.67;;;13.00;1.00;;;;;;4953331;28;20472;-79
2021/09/05 01:39:18;;;;;;;30.20;20.53;;;13.00;1.00;;;;;;4948731;28;20441;-80
2021/09/05 01:42:03;;;;;;;28.00;19.80;;;13.00;1.00;;;;;;4943710;28;20466;-79
2021/09/05 01:44:57;;;;;;;32.53;20.40;;;13.00;1.00;;;;;;4951628;28;20532;-80
2021/09/05 01:47:41;;;;;;;34.20;21.23;;;13.00;1.00;;;;;;4946497;28;20539;-79
2021/09/05 01:50:35;;;;;;;33.57;20.30;;;12.90;1.00;;;;;;4936166;28;20442;-79
2021/09/05 01:53:20;;;;;;;34.23;21.20;;;12.90;1.00;;;;;;4950458;28;20443;-79
2021/09/05 01:56:17;;;;;;;40.90;22.13;;;12.90;1.00;;;;;;4951223;28;20444;-80
2021/09/05 01:59:03;;;;;;;38.00;23.30;;;12.90;1.00;;;;;;4943622;28;20503;-79
2021/09/05 02:01:48;;;;;;;40.00;21.40;;;12.90;1.00;;;;;;4946749;28;20445;-80
2021/09/05 02:04:38;;;;;;;30.87;20.87;;;12.90;1.00;;;;;;4950221;28;20488;-80
2021/09/05 02:07:27;;;;;;;29.13;19.90;;;12.90;1.00;;;;;;4946497;28;20881;-79
2021/09/05 02:10:12;;;;;;;30.93;20.47;;;12.90;1.00;;;;;;4932734;28;20461;-80
2021/09/05 02:13:01;;;;;;;30.90;20.47;;;12.90;1.00;;;;;;4932046;28;21013;-79
2021/09/05 02:16:02;;;;;;;31.03;19.50;;;12.90;1.00;;;;;;4926433;28;20535;-79
2021/09/05 02:18:46;;;;;;;32.20;20.30;;;12.80;1.00;;;;;;4945653;28;20446;-80
2021/09/05 02:21:34;;;;;;;30.83;20.17;;;12.80;1.00;;;;;;4935474;28;20500;-80
2021/09/05 02:24:26;;;;;;;29.77;20.30;;;12.80;1.00;;;;;;4935139;28;21233;-80
2021/09/05 02:27:26;;;;;;;35.50;20.57;;;12.70;1.00;;;;;;4950107;28;20472;-80
2021/09/05 02:30:11;;;;;;;32.47;20.87;;;12.70;1.00;;;;;;4934821;28;20438;-79
2021/09/05 02:32:53;;;;;;;41.73;20.80;;;12.70;1.00;;;;;;4927530;28;20538;-80
2021/09/05 02:35:45;;;;;;;36.33;20.40;;;12.70;1.00;;;;;;4948616;28;20823;-79
2021/09/05 02:38:29;;;;;;;29.40;18.70;;;12.70;1.00;;;;;;4952406;28;20481;-80
2021/09/05 02:41:18;;;;;;;32.87;20.60;;;12.60;13.70;;;;;;4942952;28;20537;-80
2021/09/05 02:44:07;;;;;;;33.57;21.87;;;12.70;1.00;;;;;;4935170;28;21064;-80
2021/09/05 02:46:55;;;;;;;29.53;20.63;;;12.70;7.20;;;;;;4936683;28;20508;-80
2021/09/05 02:49:41;;;;;;;32.03;20.70;;;12.70;1.00;;;;;;4948324;28;20508;-80
2021/09/05 02:52:37;;;;;;;34.77;21.27;;;12.60;1.00;;;;;;4934760;28;20504;-80
2021/09/05 02:55:20;;;;;;;33.97;22.47;;;12.60;1.00;;;;;;4932442;28;20500;-80
2021/09/05 02:58:05;;;;;;;36.53;20.50;;;12.60;1.00;;;;;;4945806;28;21103;-80
2021/09/05 03:00:45;;;;;;;33.33;22.10;;;12.50;1.00;;;;;;4934063;28;21022;-79
2021/09/05 03:03:33;;;;;;;31.40;20.80;;;12.50;1.00;;;;;;4950220;28;20484;-80
2021/09/05 03:06:19;;;;;;;39.53;20.90;;;12.50;73.60;;;;;;4936471;28;20515;-80
2021/09/05 03:09:07;;;;;;;30.10;19.30;;;12.50;31.90;;;;;;4950196;28;20449;-80
2021/09/05 03:12:08;;;;;;;40.43;22.37;;;12.50;28.10;;;;;;4946117;28;20550;-80
2021/09/05 03:14:48;;;;;;;35.90;20.87;;;12.40;94.30;;;;;;4934783;28;20476;-80
2021/09/05 03:17:32;;;;;;;36.43;23.73;;;12.40;99.90;;;;;;4950945;28;20449;-80
2021/09/05 03:20:16;;;;;;;37.70;22.23;;;12.30;99.90;;;;;;4949479;28;20963;-80
2021/09/05 03:23:11;;;;;;;36.40;21.63;;;12.30;1.00;;;;;;4933979;28;20476;-80
2021/09/05 03:25:55;;;;;;;31.60;21.03;;;12.20;1.00;;;;;;4949916;28;20448;-80
2021/09/05 03:28:40;;;;;;;32.37;21.37;;;12.20;99.90;;;;;;4947617;28;20804;-79
2021/09/05 03:31:34;;;;;;;39.37;21.00;;;12.30;1.00;;;;;;4922354;28;20452;-80
2021/09/05 03:34:16;;;;;;;35.27;21.20;;;12.20;99.90;;;;;;4934951;28;20437;-80
2021/09/05 03:37:11;;;;;;;33.47;22.90;;;12.30;81.20;;;;;;4952490;28;20550;-80
2021/09/05 03:39:51;;;;;;;35.63;20.87;;;12.30;1.00;;;;;;4936575;28;20479;-80
2021/09/05 03:42:40;;;;;;;32.60;19.87;;;12.40;99.90;;;;;;4922694;28;20453;-79
2021/09/05 03:45:28;;;;;;;32.30;20.20;;;12.40;1.00;;;;;;4945258;28;20543;-80
2021/09/05 03:48:14;;;;;;;32.13;20.20;;;12.40;79.30;;;;;;4949511;28;20468;-79
2021/09/05 03:50:53;;;;;;;30.97;18.87;;;12.40;1.00;;;;;;4932930;28;20572;-79
2021/09/05 03:53:19;;;;;;;29.87;19.57;;;12.30;1.00;;;;;;4935251;28;21069;-80
2021/09/05 03:55:47;;;;;;;30.20;20.93;;;12.30;1.00;;;;;;4937420;28;20643;-80
2021/09/05 03:58:15;;;;;;;30.73;19.00;;;12.30;1.00;;;;;;4939941;28;20473;-80
2021/09/05 04:00:41;;;;;;;29.00;19.23;;;12.20;1.00;;;;;;4949953;28;20531;-80
2021/09/05 04:03:11;;;;;;;28.47;18.60;;;12.30;1.00;;;;;;4934505;28;20983;-80
2021/09/05 04:05:37;;;;;;;33.37;19.23;;;12.20;99.90;;;;;;4952583;28;20500;-80
2021/09/05 04:10:35;;;;;;;26.63;18.57;;;12.10;1.00;;;;;;4954307;28;20626;-80
2021/09/05 04:13:02;;;;;;;39.17;22.23;;;12.10;1.00;;;;;;4953694;28;20539;-80
2021/09/05 04:15:28;;;;;;;36.93;20.90;;;12.10;1.00;;;;;;4946721;28;20470;-79
2021/09/05 04:17:54;;;;;;;32.07;20.50;;;12.10;1.10;;;;;;4951042;28;20453;-79
2021/09/05 04:20:20;;;;;;;35.43;21.53;;;12.00;22.90;;;;;;4950539;28;20460;-80
2021/09/05 04:22:46;;;;;;;30.83;20.63;;;12.00;99.90;;;;;;4944745;28;20505;-80
2021/09/05 04:25:13;;;;;;;41.00;23.17;;;11.90;1.00;;;;;;4951870;28;20441;-79
2021/09/05 04:27:39;;;;;;;37.07;21.77;;;11.90;99.90;;;;;;4951631;28;20846;-80
2021/09/05 04:30:07;;;;;;;34.00;22.30;;;11.90;1.00;;;;;;4955015;28;20542;-80
2021/09/05 04:32:34;;;;;;;33.23;21.90;;;11.90;1.00;;;;;;4944924;28;20876;-80
2021/09/05 04:35:00;;;;;;;34.37;21.30;;;11.90;99.90;;;;;;4952026;28;20833;-80
2021/09/05 04:37:26;;;;;;;34.67;22.07;;;11.90;99.90;;;;;;4952818;28;20613;-80
2021/09/05 04:39:52;;;;;;;36.13;20.70;;;11.90;99.90;;;;;;4949668;28;21051;-80
2021/09/05 04:42:18;;;;;;;38.23;20.73;;;11.90;99.90;;;;;;4952016;28;20451;-80
2021/09/05 04:44:44;;;;;;;30.27;20.10;;;11.90;99.90;;;;;;4937308;28;20560;-80
2021/09/05 04:47:09;;;;;;;37.50;21.60;;;11.90;99.90;;;;;;4953195;28;20226;-80
2021/09/05 04:49:35;;;;;;;32.57;20.10;;;11.90;99.90;;;;;;4953397;28;20187;-80
2021/09/05 04:52:01;;;;;;;32.87;19.57;;;11.90;99.90;;;;;;4939551;28;20204;-80
2021/09/05 04:54:27;;;;;;;33.83;21.77;;;11.90;99.90;;;;;;4954464;28;20825;-80
2021/09/05 04:56:53;;;;;;;33.00;21.03;;;11.80;99.90;;;;;;4946318;28;20445;-81
2021/09/05 04:59:18;;;;;;;34.50;21.70;;;11.80;99.90;;;;;;4948243;28;21023;-80
2021/09/05 05:01:44;;;;;;;37.67;21.70;;;11.80;99.90;;;;;;4948159;28;20682;-80
2021/09/05 05:04:10;;;;;;;33.27;22.17;;;11.80;99.90;;;;;;4952451;28;21112;-80
2021/09/05 05:06:40;;;;;;;36.50;22.00;;;11.80;99.90;;;;;;4950483;28;20342;-80
2021/09/05 05:09:10;;;;;;;32.93;19.53;;;11.80;99.90;;;;;;4954447;28;20195;-80
2021/09/05 05:11:37;;;;;;;33.10;20.77;;;11.70;99.90;;;;;;4949476;28;20454;-79
2021/09/05 05:14:02;;;;;;;35.93;21.37;;;11.70;99.90;;;;;;4946735;28;20914;-79
2021/09/05 05:16:28;;;;;;;34.60;21.57;;;11.70;99.90;;;;;;4950104;28;20458;-79
2021/09/05 05:18:54;;;;;;;44.63;23.53;;;11.70;99.90;;;;;;4941327;28;20186;-79
2021/09/05 05:21:20;;;;;;;34.83;20.80;;;11.70;99.90;;;;;;4947169;28;20197;-80
2021/09/05 05:23:45;;;;;;;36.13;22.07;;;11.70;99.90;;;;;;4948411;28;20324;-80
2021/09/05 05:26:11;;;;;;;31.67;20.90;;;11.70;99.90;;;;;;4943237;28;20597;-79
2021/09/05 05:28:36;;;;;;;38.70;22.27;;;11.70;99.90;;;;;;4950887;28;20743;-79
2021/09/05 05:31:02;;;;;;;34.97;21.70;;;11.60;99.90;;;;;;4945882;28;20193;-79
2021/09/05 05:33:28;;;;;;;33.20;21.53;;;11.70;99.90;;;;;;4952068;28;20190;-79
2021/09/05 05:35:53;;;;;;;37.90;22.10;;;11.60;99.90;;;;;;4950240;28;20182;-79
2021/09/05 05:38:19;;;;;;;36.13;21.60;;;11.60;99.90;;;;;;4945907;28;20245;-79
2021/09/05 05:40:45;;;;;;;40.73;22.20;;;11.60;99.90;;;;;;4948739;28;20689;-79
2021/09/05 05:43:11;;;;;;;35.13;21.87;;;11.60;99.90;;;;;;4956444;28;20182;-79
2021/09/05 05:45:36;;;;;;;36.40;21.80;;;11.60;99.90;;;;;;4946372;28;20198;-79
2021/09/05 05:48:02;;;;;;;39.77;22.13;;;11.60;99.90;;;;;;4947691;28;20237;-79
2021/09/05 05:50:28;;;;;;;34.63;21.57;;;11.60;99.90;;;;;;4951623;28;20179;-79
2021/09/05 05:52:53;;;;;;;42.83;22.70;;;11.70;99.90;;;;;;4944527;28;20636;-79
2021/09/05 05:55:22;;;;;;;38.70;23.60;;;11.70;99.90;;;;;;4952047;28;20189;-79
2021/09/05 05:57:48;;;;;;;36.93;22.93;;;11.70;99.90;;;;;;4954496;28;20196;-79
2021/09/05 06:00:14;;;;;;;35.50;21.10;;;11.70;99.90;;;;;;4933119;28;20465;-79
2021/09/05 06:02:39;;;;;;;37.00;22.77;;;11.70;99.90;;;;;;4948293;28;20217;-79
2021/09/05 06:05:05;;;;;;;39.10;23.90;;;11.80;99.90;;;;;;4951300;28;21010;-79
2021/09/05 06:07:31;;;;;;;42.23;23.23;;;11.80;99.90;;;;;;4953013;28;20300;-79
2021/09/05 06:09:57;;;;;;;39.43;23.37;;;11.80;99.90;;;;;;4950252;28;20471;-80
2021/09/05 06:12:23;;;;;;;36.03;21.77;;;11.90;99.90;;;;;;4956751;28;20679;-80
2021/09/05 06:14:48;;;;;;;39.10;22.30;;;11.80;99.90;;;;;;4954676;28;20345;-79
2021/09/05 06:17:14;;;;;;;38.00;21.97;;;11.90;99.90;;;;;;4950225;28;20186;-79
2021/09/05 06:19:40;;;;;;;34.80;22.97;;;11.90;99.90;;;;;;4953957;28;20231;-79
2021/09/05 06:22:05;;;;;;;34.80;22.40;;;11.90;99.90;;;;;;4959008;28;20452;-79
2021/09/05 06:24:31;;;;;;;43.27;24.07;;;11.90;99.90;;;;;;4959641;28;20194;-80
2021/09/05 06:26:57;;;;;;;36.40;22.47;;;12.00;99.90;;;;;;4955168;28;20285;-79
2021/09/05 06:29:23;;;;;;;39.07;22.33;;;12.10;99.90;;;;;;4956342;28;20586;-79
2021/09/05 06:31:49;;;;;;;43.03;23.40;;;12.10;99.90;;;;;;4953545;28;20186;-79
2021/09/05 06:34:14;;;;;;;38.30;23.67;;;12.10;99.90;;;;;;4954720;28;20807;-80
2021/09/05 06:36:40;;;;;;;41.13;25.47;;;12.20;99.90;;;;;;4958433;28;20450;-79
2021/09/05 06:39:06;;;;;;;43.47;25.50;;;12.20;99.90;;;;;;4958230;28;20559;-79
2021/09/05 06:41:31;;;;;;;39.93;26.03;;;12.20;99.90;;;;;;4952591;28;20257;-79
2021/09/05 06:43:57;;;;;;;38.53;24.20;;;12.40;99.90;;;;;;4958785;28;20646;-79
2021/09/05 06:46:23;;;;;;;43.27;22.33;;;12.50;99.90;;;;;;4960827;28;20241;-79
2021/09/05 06:48:49;;;;;;;40.27;24.03;;;12.60;99.90;;;;;;4961314;28;20490;-80
2021/09/05 06:51:18;;;;;;;35.53;23.77;;;12.60;99.90;;;;;;4941880;28;20194;-79
2021/09/05 06:53:44;;;;;;;36.27;22.43;;;12.70;99.90;;;;;;4955008;28;20948;-79
2021/09/05 06:56:09;;;;;;;37.70;23.83;;;12.70;99.90;;;;;;4956805;28;21047;-79
2021/09/05 06:58:35;;;;;;;33.87;23.23;;;12.80;99.90;;;;;;4957719;28;20205;-79
2021/09/05 07:01:02;;;;;;;33.77;22.47;;;12.90;99.90;;;;;;4951496;28;20204;-79
2021/09/05 07:03:28;;;;;;;44.00;24.60;;;12.90;99.90;;;;;;4956694;28;20503;-79
2021/09/05 07:05:54;;;;;;;40.97;24.70;;;13.00;99.90;;;;;;4952993;28;20967;-80
2021/09/05 07:08:20;;;;;;;37.30;24.20;;;13.00;99.90;;;;;;4951304;28;20303;-79
2021/09/05 07:10:45;;;;;;;38.27;23.77;;;13.10;99.90;;;;;;4937376;28;20194;-79
2021/09/05 07:13:11;;;;;;;46.77;23.20;;;13.20;99.90;;;;;;4957429;28;20465;-79
2021/09/05 07:15:37;;;;;;;38.93;24.20;;;13.30;99.90;;;;;;4950092;28;20293;-79
2021/09/05 07:18:03;;;;;;;31.07;21.50;;;13.40;99.90;;;;;;4955038;28;20183;-80
2021/09/05 07:20:29;;;;;;;39.57;22.40;;;13.50;99.90;;;;;;4950070;28;20190;-80
2021/09/05 07:22:56;;;;;;;34.70;21.20;;;13.60;99.90;;;;;;4954672;28;20456;-79
2021/09/05 07:25:22;;;;;;;39.20;22.17;;;13.70;99.90;;;;;;4958172;28;20198;-79
2021/09/05 07:27:48;;;;;;;36.27;22.93;;;13.80;99.90;;;;;;4952403;28;20480;-79
2021/09/05 07:30:14;;;;;;;32.83;22.80;;;13.90;99.90;;;;;;4954646;28;20453;-79
2021/09/05 07:32:42;;;;;;;42.47;24.67;;;14.00;99.90;;;;;;4959001;28;20539;-79
2021/09/05 07:35:07;;;;;;;35.17;21.43;;;14.10;99.90;;;;;;4959010;28;20456;-80
2021/09/05 07:37:34;;;;;;;37.07;22.90;;;14.20;99.90;;;;;;4958466;28;20452;-79
2021/09/05 07:40:00;;;;;;;28.53;20.90;;;14.30;99.90;;;;;;4959000;28;20686;-79
2021/09/05 07:42:26;;;;;;;35.07;22.27;;;14.40;99.90;;;;;;4966295;28;20453;-79
2021/09/05 07:44:51;;;;;;;34.27;21.30;;;14.50;99.90;;;;;;4962758;28;20505;-79
2021/09/05 07:47:18;;;;;;;32.73;23.50;;;14.50;99.90;;;;;;4961522;28;20344;-79
2021/09/05 07:49:43;;;;;;;32.87;21.50;;;14.60;99.90;;;;;;4952730;28;20256;-79
2021/09/05 07:52:09;;;;;;;35.70;22.73;;;14.70;99.90;;;;;;4955788;28;20448;-79
2021/09/05 07:54:34;;;;;;;33.77;22.60;;;14.90;99.90;;;;;;4966161;28;20197;-79
2021/09/05 07:57:00;;;;;;;28.97;19.50;;;15.00;99.90;;;;;;4960975;28;20185;-79
2021/09/05 07:59:26;;;;;;;33.73;22.50;;;15.00;99.90;;;;;;4961241;28;20680;-79
2021/09/05 08:01:51;;;;;;;35.10;22.60;;;15.10;99.90;;;;;;4956586;28;20218;-79
2021/09/05 08:04:17;;;;;;;37.63;21.27;;;15.20;99.90;;;;;;4959115;28;20305;-79
2021/09/05 08:06:43;;;;;;;36.77;21.07;;;15.20;99.90;;;;;;4957842;28;20345;-79
2021/09/05 08:09:08;;;;;;;30.10;20.30;;;15.40;99.90;;;;;;4952827;28;20736;-78
2021/09/05 08:11:34;;;;;;;33.90;20.73;;;15.40;99.90;;;;;;4953575;28;20278;-79
2021/09/05 08:14:00;;;;;;;30.00;20.13;;;15.50;99.90;;;;;;4934540;28;20319;-79
2021/09/05 08:16:25;;;;;;;27.43;19.20;;;15.50;99.90;;;;;;4952793;28;20194;-79
2021/09/05 08:18:51;;;;;;;32.43;20.40;;;15.70;99.90;;;;;;4939735;28;20189;-79
2021/09/05 08:21:17;;;;;;;30.13;20.20;;;15.80;99.90;;;;;;4949786;28;20202;-79
2021/09/05 08:23:43;;;;;;;28.47;19.27;;;16.00;99.90;;;;;;4957178;28;20276;-79
2021/09/05 08:26:12;;;;;;;27.40;19.23;;;16.10;99.90;;;;;;4954224;28;20243;-79
2021/09/05 08:28:39;;;;;;;29.70;20.43;;;16.20;99.90;;;;;;4955293;28;20444;-79
2021/09/05 08:31:05;;;;;;;34.93;21.40;;;16.30;99.90;;;;;;4948117;28;20589;-79
2021/09/05 08:33:31;;;;;;;28.87;19.47;;;16.30;99.90;;;;;;4951290;28;20464;-80
2021/09/05 08:35:57;;;;;;;29.00;20.13;;;16.40;99.90;;;;;;4952059;28;20182;-79
2021/09/05 08:38:23;;;;;;;29.23;20.70;;;16.40;99.90;;;;;;4956716;28;21014;-79
2021/09/05 08:40:49;;;;;;;31.80;19.07;;;16.50;99.90;;;;;;4947597;28;20504;-79
2021/09/05 08:43:20;;;;;;;30.03;20.07;;;16.70;99.90;;;;;;4953330;28;20198;-79
2021/09/05 08:45:45;;;;;;;30.77;18.77;;;16.80;99.90;;;;;;4945223;28;21099;-80
2021/09/05 08:48:15;;;;;;;26.87;19.20;;;16.80;99.90;;;;;;4957465;28;20476;-79
2021/09/05 08:50:42;;;;;;;28.73;19.47;;;17.00;99.90;;;;;;4955302;28;20480;-79
2021/09/05 08:53:08;;;;;;;25.77;18.17;;;17.10;99.90;;;;;;4953361;28;20457;-79
2021/09/05 08:55:34;;;;;;;23.33;18.27;;;17.20;99.90;;;;;;4955290;28;20464;-79
2021/09/05 08:57:59;;;;;;;28.43;17.90;;;17.30;99.90;;;;;;4953256;28;20453;-79
2021/09/05 09:00:25;;;;;;;27.63;16.90;;;17.50;48.30;;;;;;4947563;28;20496;-80
2021/09/05 09:02:54;;;;;;;25.47;17.93;;;17.70;17.90;;;;;;4941966;28;20221;-80
2021/09/05 09:05:29;;;;;;;24.90;18.97;;;17.80;1.00;;;;;;4948502;28;20206;-79
2021/09/05 09:07:58;;;;;;;24.00;18.83;;;17.70;2.80;;;;;;4947546;28;20472;-79
2021/09/05 09:10:24;;;;;;;22.50;16.40;;;17.80;1.00;;;;;;4954421;28;20457;-79
2021/09/05 09:12:50;;;;;;;22.03;17.10;;;17.80;1.00;;;;;;4948020;28;20992;-79
2021/09/05 09:15:31;;;;;;;26.77;17.63;;;17.90;1.00;;;;;;4945925;28;20214;-80
2021/09/05 09:18:03;;;;;;;23.60;16.40;;;18.00;1.00;;;;;;4949316;28;20190;-79
2021/09/05 09:20:43;;;;;;;20.80;16.93;;;18.10;1.00;;;;;;4945105;28;21098;-80
2021/09/05 09:23:18;;;;;;;23.80;15.03;;;18.20;1.00;;;;;;4949755;28;20477;-80
2021/09/05 09:26:11;;;;;;;20.73;16.00;;;18.40;1.00;;;;;;4950865;28;20441;-80
2021/09/05 09:28:51;;;;;;;22.87;14.57;;;18.50;1.00;;;;;;4934048;28;20587;-80
2021/09/05 09:31:27;;;;;;;18.47;14.00;;;18.60;1.00;;;;;;4934607;28;20484;-79
2021/09/05 09:33:58;;;;;;;27.87;16.13;;;18.80;1.00;;;;;;4949529;28;20449;-79
2021/09/05 09:36:28;;;;;;;21.33;13.10;;;18.90;1.00;;;;;;4947189;28;20451;-79
2021/09/05 09:38:55;;;;;;;21.93;14.53;;;19.10;1.00;;;;;;4947728;28;20457;-80
2021/09/05 09:41:20;;;;;;;20.97;13.87;;;19.20;1.00;;;;;;4932903;28;20484;-79
2021/09/05 09:43:59;;;;;;;18.87;13.23;;;19.30;1.00;;;;;;4947183;28;20547;-80
2021/09/05 09:46:28;;;;;;;18.50;14.03;;;19.40;1.00;;;;;;4949461;28;20219;-79
2021/09/05 09:48:56;;;;;;;17.93;13.80;;;19.50;1.00;;;;;;4941405;28;20457;-79
2021/09/05 09:51:23;;;;;;;15.07;12.33;;;19.60;1.00;;;;;;4926461;28;20528;-79
2021/09/05 09:53:50;;;;;;;16.87;12.60;;;19.70;1.00;;;;;;4946479;28;21688;-79
2021/09/05 09:56:16;;;;;;;22.10;13.17;;;19.80;1.00;;;;;;4945708;28;20595;-79
2021/09/05 09:58:44;;;;;;;23.77;14.70;;;19.80;1.00;;;;;;4940186;28;20453;-79
2021/09/05 10:01:20;;;;;;;21.60;14.77;;;19.80;1.00;;;;;;4944080;28;20512;-79
2021/09/05 10:03:48;;;;;;;20.83;15.93;;;19.90;1.00;;;;;;4950978;28;20453;-79
2021/09/05 10:06:14;;;;;;;16.60;13.60;;;19.90;1.00;;;;;;4939210;28;20630;-79
2021/09/05 10:08:42;;;;;;;21.13;14.53;;;20.00;1.00;;;;;;4941703;28;20501;-79
2021/09/05 10:11:12;;;;;;;20.83;15.03;;;20.00;1.00;;;;;;4943396;28;20463;-79
2021/09/05 10:13:39;;;;;;;17.60;13.57;;;20.10;1.00;;;;;;4951067;28;20996;-79
2021/09/05 10:16:06;;;;;;;22.67;15.70;;;20.20;1.00;;;;;;4950790;28;20458;-80
2021/09/05 10:18:39;;;;;;;15.50;13.13;;;20.20;1.00;;;;;;4944800;28;20484;-79
2021/09/05 10:21:05;;;;;;;19.20;15.27;;;20.30;1.00;;;;;;4949857;28;20662;-79
2021/09/05 10:23:33;;;;;;;22.90;14.40;;;20.30;1.00;;;;;;4952338;28;20541;-79
2021/09/05 10:26:12;;;;;;;19.43;13.73;;;20.30;1.00;;;;;;4949702;28;20527;-79
2021/09/05 10:28:44;;;;;;;19.13;13.30;;;20.40;1.00;;;;;;4951424;28;20494;-80
2021/09/05 10:31:12;;;;;;;17.00;13.70;;;20.50;1.00;;;;;;4950878;28;20461;-80
2021/09/05 10:33:39;;;;;;;17.60;12.90;;;20.60;1.00;;;;;;4951990;28;20461;-79
2021/09/05 10:36:18;;;;;;;15.90;11.97;;;20.60;1.00;;;;;;4949606;28;20452;-80
2021/09/05 10:38:45;;;;;;;17.93;12.70;;;20.70;1.00;;;;;;4956895;28;20484;-79
2021/09/05 10:41:15;;;;;;;18.53;11.67;;;20.80;1.00;;;;;;4945181;28;20464;-79
2021/09/05 10:43:58;;;;;;;16.40;11.83;;;20.70;1.00;;;;;;4949845;28;20473;-79
2021/09/05 10:46:28;;;;;;;17.00;12.50;;;20.80;1.00;;;;;;4951856;28;20461;-79
2021/09/05 10:49:03;;;;;;;17.53;12.40;;;20.80;1.00;;;;;;4951704;28;20537;-79
2021/09/05 10:51:50;;;;;;;13.30;11.77;;;20.80;1.00;;;;;;4950118;28;20867;-79
2021/09/05 10:54:24;;;;;;;15.60;12.30;;;20.90;1.00;;;;;;4946205;28;20472;-79
2021/09/05 10:56:51;;;;;;;18.37;12.47;;;21.00;1.00;;;;;;4947804;28;22195;-79
2021/09/05 10:59:24;;;;;;;13.93;11.70;;;21.10;1.00;;;;;;4949764;28;20468;-79
2021/09/05 11:01:50;;;;;;;18.27;12.50;;;21.20;1.00;;;;;;4948482;28;20480;-79
2021/09/05 11:04:16;;;;;;;17.50;13.07;;;21.20;1.00;;;;;;4948066;28;22336;-79
2021/09/05 11:07:03;;;;;;;13.80;11.27;;;21.30;1.00;;;;;;4946351;28;20221;-79
2021/09/05 11:09:28;;;;;;;14.40;11.60;;;21.40;1.00;;;;;;4947385;28;20673;-79
2021/09/05 11:12:01;;;;;;;16.00;11.43;;;21.50;1.00;;;;;;4944395;28;20445;-79
2021/09/05 11:17:20;;;;;;;13.70;11.47;;;21.50;1.00;;;;;;4952664;28;20449;-79
2021/09/05 11:19:56;;;;;;;16.40;13.27;;;21.50;1.00;;;;;;4947317;28;20456;-80
2021/09/05 11:22:29;;;;;;;16.90;12.67;;;21.60;1.00;;;;;;4953910;28;20456;-79
2021/09/05 11:25:18;;;;;;;15.70;11.73;;;21.70;1.00;;;;;;4948720;28;20535;-80
2021/09/05 11:27:49;;;;;;;16.07;12.10;;;21.70;1.00;;;;;;4944584;28;20476;-79
2021/09/05 11:30:17;;;;;;;14.43;11.90;;;21.80;1.00;;;;;;4951923;28;20457;-79
2021/09/05 11:32:47;;;;;;;13.07;11.40;;;21.90;1.00;;;;;;4953457;28;20878;-79
2021/09/05 11:35:13;;;;;;;12.37;10.90;;;21.90;1.00;;;;;;4954005;28;20445;-79
2021/09/05 11:37:45;;;;;;;15.97;12.50;;;21.90;1.00;;;;;;4955970;28;20468;-79
2021/09/05 11:40:17;;;;;;;14.77;10.87;;;21.90;1.00;;;;;;4949708;28;20454;-79
2021/09/05 11:42:51;;;;;;;21.00;12.07;;;21.90;1.00;;;;;;4952466;28;20540;-79
2021/09/05 11:45:21;;;;;;;15.87;12.20;;;21.90;1.00;;;;;;4948991;28;20856;-79
2021/09/05 11:47:57;;;;;;;15.93;11.53;;;22.00;1.00;;;;;;4949479;28;20567;-79
2021/09/05 11:50:24;;;;;;;15.80;11.43;;;22.00;1.00;;;;;;4942626;28;20976;-79
2021/09/05 11:52:50;;;;;;;16.90;11.73;;;22.10;1.00;;;;;;4949323;28;20585;-79
2021/09/05 11:55:20;;;;;;;18.50;12.93;;;22.10;1.00;;;;;;4952439;28;21905;-79
2021/09/05 11:57:56;;;;;;;16.17;12.20;;;22.10;1.00;;;;;;4945742;28;20878;-80
2021/09/05 12:00:36;;;;;;;16.43;11.30;;;22.20;1.00;;;;;;4938943;28;20842;-79
2021/09/05 12:03:08;;;;;;;17.40;11.00;;;22.10;1.00;;;;;;4941504;28;20481;-80
2021/09/05 12:05:36;;;;;;;14.43;10.83;;;22.20;1.00;;;;;;4944285;28;20529;-80
2021/09/05 12:08:03;;;;;;;14.93;11.37;;;22.30;1.00;;;;;;4942628;28;21208;-80
2021/09/05 12:10:30;;;;;;;20.40;12.07;;;22.30;1.00;;;;;;4947983;28;20464;-79
2021/09/05 12:13:07;;;;;;;14.80;10.93;;;22.30;1.00;;;;;;4949748;28;20448;-80
2021/09/05 12:15:43;;;;;;;13.77;11.00;;;22.40;1.00;;;;;;4956235;28;20584;-79
2021/09/05 12:18:23;;;;;;;16.87;11.93;;;22.60;1.00;;;;;;4960388;28;20456;-80
2021/09/05 12:20:58;;;;;;;17.77;11.13;;;22.50;1.00;;;;;;4952291;28;20496;-79
2021/09/05 12:23:26;;;;;;;14.40;10.93;;;22.50;1.00;;;;;;4950421;28;20472;-79
2021/09/05 12:25:55;;;;;;;15.17;11.20;;;22.50;1.00;;;;;;4954518;28;20549;-80
2021/09/05 12:28:29;;;;;;;15.57;11.60;;;22.60;1.00;;;;;;4953019;28;20554;-79
2021/09/05 12:31:00;;;;;;;13.70;10.83;;;22.50;1.00;;;;;;4952116;28;20481;-79
2021/09/05 12:33:26;;;;;;;14.03;10.90;;;22.50;1.00;;;;;;4952933;28;20532;-79
2021/09/05 12:36:18;;;;;;;15.30;11.17;;;22.50;1.00;;;;;;4935012;28;20446;-79
2021/09/05 12:38:54;;;;;;;19.60;11.10;;;22.60;1.00;;;;;;4949090;28;20445;-79
2021/09/05 12:41:23;;;;;;;15.60;11.73;;;22.60;1.00;;;;;;4942415;28;20466;-79
2021/09/05 12:43:52;;;;;;;12.83;10.63;;;22.50;1.00;;;;;;4937693;28;20468;-79
2021/09/05 12:46:35;;;;;;;14.70;10.53;;;22.50;1.00;;;;;;4944155;28;20568;-80
2021/09/05 12:49:09;;;;;;;15.90;11.20;;;22.50;1.00;;;;;;4942935;28;20480;-79
2021/09/05 12:51:51;;;;;;;13.83;10.87;;;22.50;1.00;;;;;;4946134;28;21435;-76
2021/09/05 12:54:18;;;;;;;15.60;11.33;;;22.60;1.00;;;;;;4945487;28;20446;-76
2021/09/05 12:56:46;;;;;;;16.73;11.23;;;22.60;1.00;;;;;;4947130;28;20445;-76
2021/09/05 12:59:14;;;;;;;15.03;10.93;;;22.70;1.00;;;;;;4945651;28;20454;-76